sensor_id;sensor_type;location;lat;lon;timestamp;P1;P2;P0
78999;PMS7003;68406;53.914;27.416;2023-09-19T00:00:57;14.4;12.9;10.1
78999;PMS7003;68406;53.914;27.416;2023-09-19T00:06:23;13.9;12.5;9.6
78999;PMS7003;68406;53.914;27.416;2023-09-19T00:11:39;13.8;12.4;9.5
78999;PMS7003;68406;53.914;27.416;2023-09-19T00:16:08;15;13.7;10.3
78999;PMS7003;68406;53.914;27.416;2023-09-19T00:20:57;14;13.3;10.3
78999;PMS7003;68406;53.914;27.416;2023-09-19T00:26:01;16;13.8;10.2
78999;PMS7003;68406;53.914;27.416;2023-09-19T00:31:39;14.8;13.4;10
78999;PMS7003;68406;53.914;27.416;2023-09-19T00:36:39;14.4;13.1;10.1
78999;PMS7003;68406;53.914;27.416;2023-09-19T00:41:23;14.3;13.2;10
78999;PMS7003;68406;53.914;27.416;2023-09-19T00:46:23;14.9;13.7;10.2
78999;PMS7003;68406;53.914;27.416;2023-09-19T00:51:15;15.6;13.8;10.6
78999;PMS7003;68406;53.914;27.416;2023-09-19T00:55:57;15.3;13.5;10.2
78999;PMS7003;68406;53.914;27.416;2023-09-19T01:01:37;15.3;13.4;10.3
78999;PMS7003;68406;53.914;27.416;2023-09-19T01:06:01;14;13.3;10.2
78999;PMS7003;68406;53.914;27.416;2023-09-19T01:11:21;14.3;13;10
78999;PMS7003;68406;53.914;27.416;2023-09-19T01:15:59;14.3;13.1;10.3
78999;PMS7003;68406;53.914;27.416;2023-09-19T01:21:26;14.6;12.9;9.7
78999;PMS7003;68406;53.914;27.416;2023-09-19T01:26:44;13.9;12.8;9.6
78999;PMS7003;68406;53.914;27.416;2023-09-19T01:31:13;13.1;12.3;8.8
78999;PMS7003;68406;53.914;27.416;2023-09-19T01:36:21;12.5;11.4;9
78999;PMS7003;68406;53.914;27.416;2023-09-19T01:41:44;15.7;14;10.9
78999;PMS7003;68406;53.914;27.416;2023-09-19T01:45:58;15.4;13.7;10.5
78999;PMS7003;68406;53.914;27.416;2023-09-19T01:51:40;15.2;13.4;10.1
78999;PMS7003;68406;53.914;27.416;2023-09-19T01:56:04;14;12.5;9.5
78999;PMS7003;68406;53.914;27.416;2023-09-19T02:00:57;14.2;13.2;10
78999;PMS7003;68406;53.914;27.416;2023-09-19T02:06:13;14.9;13.4;10
78999;PMS7003;68406;53.914;27.416;2023-09-19T02:11:19;12.9;12.1;9.2
78999;PMS7003;68406;53.914;27.416;2023-09-19T02:16:37;14.9;13.6;10.3
78999;PMS7003;68406;53.914;27.416;2023-09-19T02:21:13;15.9;14;10.7
78999;PMS7003;68406;53.914;27.416;2023-09-19T02:26:21;14.6;13.1;10.2
78999;PMS7003;68406;53.914;27.416;2023-09-19T02:31:13;15.4;13.8;10.3
78999;PMS7003;68406;53.914;27.416;2023-09-19T02:36:19;15.4;13.8;10.4
78999;PMS7003;68406;53.914;27.416;2023-09-19T02:41:23;15.1;13.3;10.3
78999;PMS7003;68406;53.914;27.416;2023-09-19T02:46:29;15.7;14.2;10.8
78999;PMS7003;68406;53.914;27.416;2023-09-19T02:50:57;13.8;13;9.8
78999;PMS7003;68406;53.914;27.416;2023-09-19T02:56:15;14.7;13.4;10.1
78999;PMS7003;68406;53.914;27.416;2023-09-19T03:01:23;15.5;14;10.5
78999;PMS7003;68406;53.914;27.416;2023-09-19T03:06:35;17;14.3;10.8
78999;PMS7003;68406;53.914;27.416;2023-09-19T03:11:37;15.5;13.4;10.2
78999;PMS7003;68406;53.914;27.416;2023-09-19T03:16:21;15.2;13.7;10.3
78999;PMS7003;68406;53.914;27.416;2023-09-19T03:21:21;15.2;13.5;10.5
78999;PMS7003;68406;53.914;27.416;2023-09-19T03:25:57;15.5;13.7;10.4
78999;PMS7003;68406;53.914;27.416;2023-09-19T03:31:09;16.4;14.9;11
78999;PMS7003;68406;53.914;27.416;2023-09-19T03:35:57;15.4;13.7;10.6
78999;PMS7003;68406;53.914;27.416;2023-09-19T03:40:57;16.8;14.9;11.2
78999;PMS7003;68406;53.914;27.416;2023-09-19T03:46:37;17.2;15.1;11.3
78999;PMS7003;68406;53.914;27.416;2023-09-19T03:51:09;15.3;14;10.9
78999;PMS7003;68406;53.914;27.416;2023-09-19T03:56:37;16.6;15.4;11.8
78999;PMS7003;68406;53.914;27.416;2023-09-19T04:01:35;16.2;14.7;10.5
78999;PMS7003;68406;53.914;27.416;2023-09-19T04:06:19;16.1;15;11.4
78999;PMS7003;68406;53.914;27.416;2023-09-19T04:11:15;16.4;14.9;11.4
78999;PMS7003;68406;53.914;27.416;2023-09-19T04:16:07;16.9;14.8;11.2
78999;PMS7003;68406;53.914;27.416;2023-09-19T04:21:15;18.1;16.4;12.2
78999;PMS7003;68406;53.914;27.416;2023-09-19T04:25:57;16.7;15.1;11.6
78999;PMS7003;68406;53.914;27.416;2023-09-19T04:30:57;15.1;13.8;10.8
78999;PMS7003;68406;53.914;27.416;2023-09-19T04:36:37;16.5;15.2;11.5
78999;PMS7003;68406;53.914;27.416;2023-09-19T04:41:15;17.6;15.6;11.8
78999;PMS7003;68406;53.914;27.416;2023-09-19T04:46:37;16.4;15.4;11.9
78999;PMS7003;68406;53.914;27.416;2023-09-19T04:51:37;17.8;16.1;12
78999;PMS7003;68406;53.914;27.416;2023-09-19T04:56:35;18;16.5;12.4
78999;PMS7003;68406;53.914;27.416;2023-09-19T05:01:21;16.9;15.5;11.9
78999;PMS7003;68406;53.914;27.416;2023-09-19T05:06:09;17.8;16.1;12.3
78999;PMS7003;68406;53.914;27.416;2023-09-19T05:11:11;17.4;15.7;12
78999;PMS7003;68406;53.914;27.416;2023-09-19T05:16:15;16.8;14.9;10.7
78999;PMS7003;68406;53.914;27.416;2023-09-19T05:20:55;17.7;15.3;12
78999;PMS7003;68406;53.914;27.416;2023-09-19T05:26:35;17.8;16.3;12.1
78999;PMS7003;68406;53.914;27.416;2023-09-19T05:31:01;18.9;15.9;12.1
78999;PMS7003;68406;53.914;27.416;2023-09-19T05:36:33;18.2;15.9;12.3
78999;PMS7003;68406;53.914;27.416;2023-09-19T05:41:31;16.9;15.8;12.3
78999;PMS7003;68406;53.914;27.416;2023-09-19T05:46:15;18;15.8;11.9
78999;PMS7003;68406;53.914;27.416;2023-09-19T05:51:17;18.4;16.4;11.9
78999;PMS7003;68406;53.914;27.416;2023-09-19T05:55:55;17.3;15.8;11.8
78999;PMS7003;68406;53.914;27.416;2023-09-19T06:01:17;17;15.3;11.9
78999;PMS7003;68406;53.914;27.416;2023-09-19T06:06:03;17.5;16;12.1
78999;PMS7003;68406;53.914;27.416;2023-09-19T06:11:09;17.6;16.3;12.5
78999;PMS7003;68406;53.914;27.416;2023-09-19T06:16:39;16.1;14.9;11.4
78999;PMS7003;68406;53.914;27.416;2023-09-19T06:21:12;18.4;16.8;12.9
78999;PMS7003;68406;53.914;27.416;2023-09-19T06:26:39;17.5;15.9;12
78999;PMS7003;68406;53.914;27.416;2023-09-19T06:31:38;17.6;15.8;11.8
78999;PMS7003;68406;53.914;27.416;2023-09-19T06:36:19;17.2;15.7;12.3
78999;PMS7003;68406;53.914;27.416;2023-09-19T06:41:23;15.4;14.7;11.4
78999;PMS7003;68406;53.914;27.416;2023-09-19T06:46:03;16.9;15.9;12.2
78999;PMS7003;68406;53.914;27.416;2023-09-19T06:51:21;14.7;13.8;11.1
78999;PMS7003;68406;53.914;27.416;2023-09-19T06:55:57;17.2;15.6;11.6
78999;PMS7003;68406;53.914;27.416;2023-09-19T07:00:57;17.6;15.6;11.8
78999;PMS7003;68406;53.914;27.416;2023-09-19T07:06:31;18.2;16.2;12
78999;PMS7003;68406;53.914;27.416;2023-09-19T07:11:15;16.7;15.5;11.7
78999;PMS7003;68406;53.914;27.416;2023-09-19T07:16:35;17.1;15.9;12.4
78999;PMS7003;68406;53.914;27.416;2023-09-19T07:21:37;17.4;15.9;11.8
78999;PMS7003;68406;53.914;27.416;2023-09-19T07:26:39;18.5;16.4;12.4
78999;PMS7003;68406;53.914;27.416;2023-09-19T07:31:37;17.3;16;12.1
78999;PMS7003;68406;53.914;27.416;2023-09-19T07:35:57;19.1;17.5;13.1
78999;PMS7003;68406;53.914;27.416;2023-09-19T07:40:59;18.2;16.5;12.3
78999;PMS7003;68406;53.914;27.416;2023-09-19T07:46:25;18.2;16.5;12
78999;PMS7003;68406;53.914;27.416;2023-09-19T07:51:01;18.4;16.1;11.8
78999;PMS7003;68406;53.914;27.416;2023-09-19T07:56:31;16.8;15.3;11.6
78999;PMS7003;68406;53.914;27.416;2023-09-19T08:01:11;15.7;14.2;11
78999;PMS7003;68406;53.914;27.416;2023-09-19T08:06:37;17.1;15.6;11.6
78999;PMS7003;68406;53.914;27.416;2023-09-19T08:11:29;15.8;14.9;11.2
78999;PMS7003;68406;53.914;27.416;2023-09-19T08:16:39;16.6;14.5;11.3
78999;PMS7003;68406;53.914;27.416;2023-09-19T08:21:39;15.6;13.9;10.5
78999;PMS7003;68406;53.914;27.416;2023-09-19T08:25:57;15.4;13.9;11.1
78999;PMS7003;68406;53.914;27.416;2023-09-19T08:31:03;15.8;14.6;11.4
78999;PMS7003;68406;53.914;27.416;2023-09-19T08:35:57;16.7;15.3;11.7
78999;PMS7003;68406;53.914;27.416;2023-09-19T08:41:05;15.9;14.6;11.7
78999;PMS7003;68406;53.914;27.416;2023-09-19T08:46:03;14;12.6;9.4
78999;PMS7003;68406;53.914;27.416;2023-09-19T08:51:12;16.2;14.9;11.7
78999;PMS7003;68406;53.914;27.416;2023-09-19T08:56:23;15.1;13.6;10.7
78999;PMS7003;68406;53.914;27.416;2023-09-19T09:01:17;15.1;14.1;11.1
78999;PMS7003;68406;53.914;27.416;2023-09-19T09:06:39;15.2;13.7;10.4
78999;PMS7003;68406;53.914;27.416;2023-09-19T09:11:40;13.8;12.4;9.3
78999;PMS7003;68406;53.914;27.416;2023-09-19T09:16:39;13.6;12.9;10.3
78999;PMS7003;68406;53.914;27.416;2023-09-19T09:20:57;13.3;11.7;9.4
78999;PMS7003;68406;53.914;27.416;2023-09-19T09:25:57;13.4;12.4;9.9
78999;PMS7003;68406;53.914;27.416;2023-09-19T09:30:57;13.6;12;9.2
78999;PMS7003;68406;53.914;27.416;2023-09-19T09:36:33;12.4;11.9;9.4
78999;PMS7003;68406;53.914;27.416;2023-09-19T09:41:13;13.4;12.2;9.7
78999;PMS7003;68406;53.914;27.416;2023-09-19T09:46:41;12.5;11.8;9
78999;PMS7003;68406;53.914;27.416;2023-09-19T09:51:39;12.5;11.3;9.2
78999;PMS7003;68406;53.914;27.416;2023-09-19T09:56:27;12.2;11.2;9
78999;PMS7003;68406;53.914;27.416;2023-09-19T10:01:11;11.2;10.4;8.5
78999;PMS7003;68406;53.914;27.416;2023-09-19T10:06:10;12.2;10.7;8.3
78999;PMS7003;68406;53.914;27.416;2023-09-19T10:10:57;12.2;11.4;8.9
78999;PMS7003;68406;53.914;27.416;2023-09-19T10:15:57;12.6;11.3;8.7
78999;PMS7003;68406;53.914;27.416;2023-09-19T10:20:57;13;11.7;9.2
78999;PMS7003;68406;53.914;27.416;2023-09-19T10:26:31;11.1;10.4;8.1
78999;PMS7003;68406;53.914;27.416;2023-09-19T10:31:25;10.4;9.4;7.4
78999;PMS7003;68406;53.914;27.416;2023-09-19T10:36:39;12;11.4;8.9
78999;PMS7003;68406;53.914;27.416;2023-09-19T10:41:31;11;9.8;7.7
78999;PMS7003;68406;53.914;27.416;2023-09-19T10:46:39;9.4;8.3;6.7
78999;PMS7003;68406;53.914;27.416;2023-09-19T10:51:39;10.8;9.8;8.1
78999;PMS7003;68406;53.914;27.416;2023-09-19T10:56:03;9.6;9.2;7.5
78999;PMS7003;68406;53.914;27.416;2023-09-19T11:00:57;9.3;8.3;6.7
78999;PMS7003;68406;53.914;27.416;2023-09-19T11:06:07;10;9.1;7.2
78999;PMS7003;68406;53.914;27.416;2023-09-19T11:10:57;10.2;8.9;7.3
78999;PMS7003;68406;53.914;27.416;2023-09-19T11:16:31;8.5;8.1;6.7
78999;PMS7003;68406;53.914;27.416;2023-09-19T11:21:38;9.6;9;7.3
78999;PMS7003;68406;53.914;27.416;2023-09-19T11:26:40;9.2;8.8;7
78999;PMS7003;68406;53.914;27.416;2023-09-19T11:31:41;11.8;11.1;9.1
78999;PMS7003;68406;53.914;27.416;2023-09-19T11:36:34;10.3;9.8;8
78999;PMS7003;68406;53.914;27.416;2023-09-19T11:41:38;9.3;8.6;7.1
78999;PMS7003;68406;53.914;27.416;2023-09-19T11:46:19;9.5;8.8;7.6
78999;PMS7003;68406;53.914;27.416;2023-09-19T11:51:11;9.8;8.6;7.3
78999;PMS7003;68406;53.914;27.416;2023-09-19T11:56:19;8.1;7.9;6.7
78999;PMS7003;68406;53.914;27.416;2023-09-19T12:01:21;8;7.6;6.6
78999;PMS7003;68406;53.914;27.416;2023-09-19T12:06:39;8;7.6;6.6
78999;PMS7003;68406;53.914;27.416;2023-09-19T12:10:57;7.8;7.4;6.4
78999;PMS7003;68406;53.914;27.416;2023-09-19T12:16:21;8.5;7.8;6.7
78999;PMS7003;68406;53.914;27.416;2023-09-19T12:21:31;7.8;7.6;6.5
78999;PMS7003;68406;53.914;27.416;2023-09-19T12:26:26;8;7.8;6.6
78999;PMS7003;68406;53.914;27.416;2023-09-19T12:31:37;8.1;7.6;6.5
78999;PMS7003;68406;53.914;27.416;2023-09-19T12:36:19;9;8.2;6.9
78999;PMS7003;68406;53.914;27.416;2023-09-19T12:40:57;7.5;7.1;6
78999;PMS7003;68406;53.914;27.416;2023-09-19T12:46:25;8.9;8.6;7.1
78999;PMS7003;68406;53.914;27.416;2023-09-19T12:51:17;8.8;8.4;7.1
78999;PMS7003;68406;53.914;27.416;2023-09-19T12:56:40;8.2;7.7;6.6
78999;PMS7003;68406;53.914;27.416;2023-09-19T13:00:57;9.6;9;7.3
78999;PMS7003;68406;53.914;27.416;2023-09-19T13:06:13;8.6;7.7;6.7
78999;PMS7003;68406;53.914;27.416;2023-09-19T13:11:19;8.3;8;6.8
78999;PMS7003;68406;53.914;27.416;2023-09-19T13:16:25;8.3;7.8;6.6
78999;PMS7003;68406;53.914;27.416;2023-09-19T13:21:39;8.1;7.7;6.6
78999;PMS7003;68406;53.914;27.416;2023-09-19T13:26:25;8.7;7.9;6.6
78999;PMS7003;68406;53.914;27.416;2023-09-19T13:31:10;8.2;7.8;6.6
78999;PMS7003;68406;53.914;27.416;2023-09-19T13:36:03;8.5;8.3;7
78999;PMS7003;68406;53.914;27.416;2023-09-19T13:41:17;10.3;9.8;7.9
78999;PMS7003;68406;53.914;27.416;2023-09-19T13:46:39;8.7;8.1;7
78999;PMS7003;68406;53.914;27.416;2023-09-19T13:51:39;8.6;8.2;7
78999;PMS7003;68406;53.914;27.416;2023-09-19T13:56:03;10.1;8.9;7.7
78999;PMS7003;68406;53.914;27.416;2023-09-19T14:01:31;8.9;8.8;7.1
78999;PMS7003;68406;53.914;27.416;2023-09-19T14:06:25;8.6;8;6.9
78999;PMS7003;68406;53.914;27.416;2023-09-19T14:11:39;9;8.2;7
78999;PMS7003;68406;53.914;27.416;2023-09-19T14:16:19;9;8.3;6.8
78999;PMS7003;68406;53.914;27.416;2023-09-19T14:21:09;9;8.5;7.2
78999;PMS7003;68406;53.914;27.416;2023-09-19T14:26:00;8.7;8;6.9
78999;PMS7003;68406;53.914;27.416;2023-09-19T14:31:15;9.6;9;7.5
78999;PMS7003;68406;53.914;27.416;2023-09-19T14:36:33;8.1;7.8;6.8
78999;PMS7003;68406;53.914;27.416;2023-09-19T14:41:17;9.4;8.6;7
78999;PMS7003;68406;53.914;27.416;2023-09-19T14:45:57;8.5;7.9;6.7
78999;PMS7003;68406;53.914;27.416;2023-09-19T14:51:29;10.9;9.3;7.7
78999;PMS7003;68406;53.914;27.416;2023-09-19T14:56:25;10.5;9.1;7.1
78999;PMS7003;68406;53.914;27.416;2023-09-19T15:01:39;10;9.4;7.7
78999;PMS7003;68406;53.914;27.416;2023-09-19T15:05:59;12.6;11.1;8.8
78999;PMS7003;68406;53.914;27.416;2023-09-19T15:10:57;10.9;9.6;7.8
78999;PMS7003;68406;53.914;27.416;2023-09-19T15:16:04;11;10.1;8.1
78999;PMS7003;68406;53.914;27.416;2023-09-19T15:21:15;10.7;9.9;8
78999;PMS7003;68406;53.914;27.416;2023-09-19T15:26:39;11;10.4;8.5
78999;PMS7003;68406;53.914;27.416;2023-09-19T15:31:27;13.4;12.1;9.5
78999;PMS7003;68406;53.914;27.416;2023-09-19T15:36:15;13.2;12;9.3
78999;PMS7003;68406;53.914;27.416;2023-09-19T15:41:19;13.7;12.6;9.6
78999;PMS7003;68406;53.914;27.416;2023-09-19T15:46:23;15.4;13.6;10.7
78999;PMS7003;68406;53.914;27.416;2023-09-19T15:51:35;13.6;12.7;10.2
78999;PMS7003;68406;53.914;27.416;2023-09-19T15:55:57;14.5;12.7;9.9
78999;PMS7003;68406;53.914;27.416;2023-09-19T16:00:57;13.3;12.5;9.9
78999;PMS7003;68406;53.914;27.416;2023-09-19T16:05:57;14.5;12.5;10.1
78999;PMS7003;68406;53.914;27.416;2023-09-19T16:11:05;14.9;13.7;10.4
78999;PMS7003;68406;53.914;27.416;2023-09-19T16:16:39;15.2;13.6;10.5
78999;PMS7003;68406;53.914;27.416;2023-09-19T16:21:01;15.7;13.5;10.4
78999;PMS7003;68406;53.914;27.416;2023-09-19T16:26:23;14.5;13.1;10.3
78999;PMS7003;68406;53.914;27.416;2023-09-19T16:31:29;14.6;13.5;11
78999;PMS7003;68406;53.914;27.416;2023-09-19T16:36:25;15.5;13.8;10.5
78999;PMS7003;68406;53.914;27.416;2023-09-19T16:41:39;16.8;15;11.5
78999;PMS7003;68406;53.914;27.416;2023-09-19T16:45:58;15.9;15.3;11.3
78999;PMS7003;68406;53.914;27.416;2023-09-19T16:51:04;14.7;14.2;10.8
78999;PMS7003;68406;53.914;27.416;2023-09-19T16:56:00;16.1;14.7;11.5
78999;PMS7003;68406;53.914;27.416;2023-09-19T17:01:17;16.4;14.9;10.9
78999;PMS7003;68406;53.914;27.416;2023-09-19T17:06:39;17;14.9;11.3
78999;PMS7003;68406;53.914;27.416;2023-09-19T17:11:29;16.4;15.1;11.5
78999;PMS7003;68406;53.914;27.416;2023-09-19T17:16:16;17.3;15.7;12.2
78999;PMS7003;68406;53.914;27.416;2023-09-19T17:21:31;16.9;15.5;12
78999;PMS7003;68406;53.914;27.416;2023-09-19T17:26:25;17.8;15.5;12
78999;PMS7003;68406;53.914;27.416;2023-09-19T17:31:39;18.4;16.7;12.2
78999;PMS7003;68406;53.914;27.416;2023-09-19T17:36:05;17.2;15.7;12
78999;PMS7003;68406;53.914;27.416;2023-09-19T17:41:03;18.9;15.8;12.3
78999;PMS7003;68406;53.914;27.416;2023-09-19T17:46:04;19.4;16.8;12.6
78999;PMS7003;68406;53.914;27.416;2023-09-19T17:51:03;17.3;16.2;12.8
78999;PMS7003;68406;53.914;27.416;2023-09-19T17:56:39;15.4;14;10.9
78999;PMS7003;68406;53.914;27.416;2023-09-19T18:01:07;18.2;16.9;12.9
78999;PMS7003;68406;53.914;27.416;2023-09-19T18:06:03;18.7;17;13.2
78999;PMS7003;68406;53.914;27.416;2023-09-19T18:11:16;19.3;16.9;12.7
78999;PMS7003;68406;53.914;27.416;2023-09-19T18:16:13;18.3;17;12.4
78999;PMS7003;68406;53.914;27.416;2023-09-19T18:21:41;17.7;16.3;12.3
78999;PMS7003;68406;53.914;27.416;2023-09-19T18:25:57;17.9;16.6;12.8
78999;PMS7003;68406;53.914;27.416;2023-09-19T18:31:09;18.9;17.1;13
78999;PMS7003;68406;53.914;27.416;2023-09-19T18:35:59;17.5;16.3;12
78999;PMS7003;68406;53.914;27.416;2023-09-19T18:41:05;17.6;16.5;12.2
78999;PMS7003;68406;53.914;27.416;2023-09-19T18:46:41;18.9;17.2;12.9
78999;PMS7003;68406;53.914;27.416;2023-09-19T18:51:31;17.3;15.7;12.4
78999;PMS7003;68406;53.914;27.416;2023-09-19T18:56:25;18.9;17.4;12.4
78999;PMS7003;68406;53.914;27.416;2023-09-19T19:01:29;19.4;17.5;13.2
78999;PMS7003;68406;53.914;27.416;2023-09-19T19:06:27;17.7;16.1;12.1
78999;PMS7003;68406;53.914;27.416;2023-09-19T19:11:14;19.2;17.2;12.8
78999;PMS7003;68406;53.914;27.416;2023-09-19T19:15:57;18.1;16.5;12.7
78999;PMS7003;68406;53.914;27.416;2023-09-19T19:21:17;17.8;16.3;12.7
78999;PMS7003;68406;53.914;27.416;2023-09-19T19:26:27;18.7;16.9;12.5
78999;PMS7003;68406;53.914;27.416;2023-09-19T19:31:41;17.7;16.7;12.4
78999;PMS7003;68406;53.914;27.416;2023-09-19T19:36:27;18.7;17.2;13.3
78999;PMS7003;68406;53.914;27.416;2023-09-19T19:41:23;17.7;16;12.3
78999;PMS7003;68406;53.914;27.416;2023-09-19T19:46:15;19.9;18;13.6
78999;PMS7003;68406;53.914;27.416;2023-09-19T19:51:11;18;15.5;11.4
78999;PMS7003;68406;53.914;27.416;2023-09-19T19:56:35;16.7;15.6;12.2
78999;PMS7003;68406;53.914;27.416;2023-09-19T20:01:27;19.1;17.9;13.3
78999;PMS7003;68406;53.914;27.416;2023-09-19T20:06:03;18.6;16.9;12.9
78999;PMS7003;68406;53.914;27.416;2023-09-19T20:11:04;17.3;15.5;11
78999;PMS7003;68406;53.914;27.416;2023-09-19T20:16:27;17.3;15.9;12.1
78999;PMS7003;68406;53.914;27.416;2023-09-19T20:21:41;18.3;17;13
78999;PMS7003;68406;53.914;27.416;2023-09-19T20:26:25;18.8;17.4;12.7
78999;PMS7003;68406;53.914;27.416;2023-09-19T20:31:08;17.8;16.4;12.4
78999;PMS7003;68406;53.914;27.416;2023-09-19T20:36:15;17.6;15.5;12
78999;PMS7003;68406;53.914;27.416;2023-09-19T20:41:11;19.1;17.4;12.8
78999;PMS7003;68406;53.914;27.416;2023-09-19T20:46:39;19.4;17;12.8
78999;PMS7003;68406;53.914;27.416;2023-09-19T20:51:03;18.5;17.1;12.8
78999;PMS7003;68406;53.914;27.416;2023-09-19T20:56:13;19.3;17.7;13.3
78999;PMS7003;68406;53.914;27.416;2023-09-19T21:01:11;18.4;16.5;12.2
78999;PMS7003;68406;53.914;27.416;2023-09-19T21:06:27;19.2;17.4;13.3
78999;PMS7003;68406;53.914;27.416;2023-09-19T21:11:41;18.9;16.7;12.8
78999;PMS7003;68406;53.914;27.416;2023-09-19T21:16:27;18.8;17.4;13.5
78999;PMS7003;68406;53.914;27.416;2023-09-19T21:21:23;20.6;18.3;13.9
78999;PMS7003;68406;53.914;27.416;2023-09-19T21:26:09;21;18.8;13.7
78999;PMS7003;68406;53.914;27.416;2023-09-19T21:31:11;20;18.5;13.6
78999;PMS7003;68406;53.914;27.416;2023-09-19T21:36:41;20;18.1;13.6
78999;PMS7003;68406;53.914;27.416;2023-09-19T21:41:12;19.7;18.3;13.8
78999;PMS7003;68406;53.914;27.416;2023-09-19T21:46:03;20.8;18.3;13.4
78999;PMS7003;68406;53.914;27.416;2023-09-19T21:51:09;19.7;17.8;13.5
78999;PMS7003;68406;53.914;27.416;2023-09-19T21:56:09;19.4;17.6;13.7
78999;PMS7003;68406;53.914;27.416;2023-09-19T22:01:21;20.1;18.5;13.7
78999;PMS7003;68406;53.914;27.416;2023-09-19T22:06:27;19.6;17.9;13.2
78999;PMS7003;68406;53.914;27.416;2023-09-19T22:11:25;18.9;17.4;13.4
78999;PMS7003;68406;53.914;27.416;2023-09-19T22:15:58;19.9;18;13.8
78999;PMS7003;68406;53.914;27.416;2023-09-19T22:21:12;20;18.6;13.2
78999;PMS7003;68406;53.914;27.416;2023-09-19T22:26:41;21;19.1;13.8
78999;PMS7003;68406;53.914;27.416;2023-09-19T22:31:27;20.7;18.2;13.4
78999;PMS7003;68406;53.914;27.416;2023-09-19T22:35:57;21.8;19.1;14.3
78999;PMS7003;68406;53.914;27.416;2023-09-19T22:40:57;20.2;18.4;13.6
78999;PMS7003;68406;53.914;27.416;2023-09-19T22:46:41;21.6;20;14.1
78999;PMS7003;68406;53.914;27.416;2023-09-19T22:51:42;22.6;19.9;14.6
78999;PMS7003;68406;53.914;27.416;2023-09-19T22:56:41;21.6;19.6;14.4
78999;PMS7003;68406;53.914;27.416;2023-09-19T23:01:41;22.4;20.1;15
78999;PMS7003;68406;53.914;27.416;2023-09-19T23:06:15;22.7;21;15.4
78999;PMS7003;68406;53.914;27.416;2023-09-19T23:10:59;22.2;20.5;15.3
78999;PMS7003;68406;53.914;27.416;2023-09-19T23:16:41;22.6;20.9;15.4
78999;PMS7003;68406;53.914;27.416;2023-09-19T23:20:57;23.4;20.2;14.7
78999;PMS7003;68406;53.914;27.416;2023-09-19T23:26:13;22.7;20.2;14.5
78999;PMS7003;68406;53.914;27.416;2023-09-19T23:31:03;22.4;20.4;15.3
78999;PMS7003;68406;53.914;27.416;2023-09-19T23:36:27;21.8;19.8;14.4
78999;PMS7003;68406;53.914;27.416;2023-09-19T23:41:39;21.6;20.4;14.9
78999;PMS7003;68406;53.914;27.416;2023-09-19T23:46:13;22;20.1;15
78999;PMS7003;68406;53.914;27.416;2023-09-19T23:51:25;21.4;19.5;13.9
78999;PMS7003;68406;53.914;27.416;2023-09-19T23:56:13;22.5;20.8;15
